Time;durP1;ratioP1;P1;durP2;ratioP2;P2;SDS_P1;SDS_P2;PMS_P1;PMS_P2;Temp;Humidity;BMP_temperature;BMP_pressure;BME280_temperature;BME280_humidity;BME280_pressure;Samples;Min_cycle;Max_cycle;Signal;HPM_P1;HPM_P2
2022/02/17 00:01:59;;;;;;;10.43;0.30;;;11.70;99.90;;;;;;5035830;28;20049;-87
2022/02/17 00:04:25;;;;;;;7.38;0.70;;;11.70;99.90;;;;;;5040994;28;20032;-87
2022/02/17 00:06:50;;;;;;;13.70;1.77;;;11.80;99.90;;;;;;5044734;28;20025;-89
2022/02/17 00:09:16;;;;;;;8.15;1.00;;;11.60;99.90;;;;;;5055246;28;20037;-88
2022/02/17 00:11:42;;;;;;;7.65;0.70;;;11.60;99.90;;;;;;5054685;28;20110;-88
2022/02/17 00:14:08;;;;;;;12.00;1.05;;;11.70;99.90;;;;;;5035482;28;20029;-88
2022/02/17 00:16:34;;;;;;;17.58;0.73;;;;;;;;;;5036445;28;20017;-87
2022/02/17 00:19:02;;;;;;;13.85;0.52;;;11.60;99.90;;;;;;5059439;28;20029;-88
2022/02/17 00:21:28;;;;;;;11.15;1.20;;;12.20;99.90;;;;;;5036714;28;20022;-87
2022/02/17 00:23:54;;;;;;;16.45;1.40;;;11.20;99.90;;;;;;5046163;28;20016;-88
2022/02/17 00:26:20;;;;;;;11.95;0.88;;;11.70;99.90;;;;;;5056156;28;20530;-89
2022/02/17 00:28:45;;;;;;;8.73;0.85;;;11.30;99.90;;;;;;5037854;28;20379;-87
2022/02/17 00:31:11;;;;;;;14.88;1.77;;;11.40;99.90;;;;;;5036201;28;20071;-87
2022/02/17 00:33:39;;;;;;;11.65;0.75;;;14.80;99.90;;;;;;5036498;28;20056;-88
2022/02/17 00:36:05;;;;;;;9.48;0.75;;;11.50;99.90;;;;;;5036274;28;20036;-88
2022/02/17 00:38:31;;;;;;;9.77;0.50;;;11.50;99.90;;;;;;5037766;28;20041;-89
2022/02/17 00:40:58;;;;;;;10.13;0.20;;;11.60;99.90;;;;;;5037863;28;20021;-87
2022/02/17 00:43:24;;;;;;;10.18;1.15;;;11.60;99.90;;;;;;5040670;28;20475;-90
2022/02/17 00:45:49;;;;;;;19.75;0.70;;;12.70;99.90;;;;;;5038991;28;20040;-89
2022/02/17 00:48:15;;;;;;;16.08;0.98;;;15.00;99.90;;;;;;5039649;28;20029;-88
2022/02/17 00:50:41;;;;;;;12.85;0.90;;;11.00;99.90;;;;;;5042135;28;20025;-89
2022/02/17 00:53:06;;;;;;;6.25;0.77;;;10.90;99.90;;;;;;5045200;28;20009;-88
2022/02/17 00:55:32;;;;;;;6.03;0.17;;;11.20;99.90;;;;;;5043654;28;20018;-89
2022/02/17 00:57:58;;;;;;;6.28;0.70;;;;;;;;;;5043187;28;20028;-87
2022/02/17 01:00:23;;;;;;;5.20;0.00;;;10.90;99.90;;;;;;5038732;28;20112;-88
2022/02/17 01:02:49;;;;;;;8.88;0.00;;;10.70;99.90;;;;;;5044121;28;20025;-87
2022/02/17 01:05:14;;;;;;;6.05;0.40;;;13.80;99.90;;;;;;5045997;28;20025;-89
2022/02/17 01:07:40;;;;;;;4.43;0.40;;;10.60;99.90;;;;;;5040328;28;20040;-89
2022/02/17 01:10:06;;;;;;;4.60;0.20;;;10.50;99.90;;;;;;5039964;28;20037;-88
2022/02/17 01:12:32;;;;;;;12.45;0.90;;;10.80;99.90;;;;;;5045182;28;20053;-88
2022/02/17 01:14:57;;;;;;;3.78;0.35;;;10.80;99.90;;;;;;5054786;28;20024;-88
2022/02/17 01:17:25;;;;;;;9.60;0.68;;;10.70;99.90;;;;;;5071226;28;20025;-87
2022/02/17 01:19:51;;;;;;;9.82;0.68;;;10.50;99.90;;;;;;5049987;28;20037;-88
2022/02/17 01:22:16;;;;;;;3.80;0.73;;;13.10;99.90;;;;;;5064842;28;20075;-88
2022/02/17 01:24:43;;;;;;;6.15;0.35;;;10.30;99.90;;;;;;5071168;28;20017;-88
2022/02/17 01:27:09;;;;;;;3.40;0.00;;;;;;;;;;5071526;28;20028;-87
2022/02/17 01:29:35;;;;;;;10.77;0.73;;;10.50;99.90;;;;;;5082947;28;20029;-87
2022/02/17 01:32:01;;;;;;;9.25;0.20;;;10.40;99.90;;;;;;5063225;28;20028;-87
2022/02/17 01:34:27;;;;;;;9.68;0.20;;;10.40;99.90;;;;;;5062874;28;20053;-88
2022/02/17 01:36:52;;;;;;;18.48;0.88;;;10.40;99.90;;;;;;5070207;28;20029;-87
2022/02/17 01:39:18;;;;;;;8.60;0.73;;;10.50;99.90;;;;;;5063004;28;20050;-87
2022/02/17 01:41:44;;;;;;;8.10;0.45;;;10.40;99.90;;;;;;5058576;28;20017;-87
2022/02/17 01:44:09;;;;;;;10.38;0.68;;;10.40;99.90;;;;;;5061216;28;20025;-88
2022/02/17 01:46:40;;;;;;;12.27;0.30;;;10.40;99.90;;;;;;5052184;28;20120;-88
2022/02/17 01:49:07;;;;;;;7.75;0.22;;;11.40;99.90;;;;;;5044370;28;20032;-88
2022/02/17 01:51:33;;;;;;;12.38;1.40;;;10.50;99.90;;;;;;5047862;28;20049;-88
2022/02/17 01:54:00;;;;;;;8.63;0.45;;;10.20;99.90;;;;;;5053852;28;20052;-88
2022/02/17 01:56:27;;;;;;;9.95;1.00;;;11.80;99.90;;;;;;5045132;28;20036;-87
2022/02/17 01:58:54;;;;;;;8.00;0.68;;;;;;;;;;5046467;28;20017;-88
2022/02/17 02:01:24;;;;;;;13.38;1.10;;;10.50;99.90;;;;;;5044957;28;20021;-88
2022/02/17 02:03:50;;;;;;;9.20;0.28;;;;;;;;;;5039131;28;20511;-89
2022/02/17 02:06:16;;;;;;;4.57;0.68;;;10.50;99.90;;;;;;5049339;28;20029;-89
2022/02/17 02:08:43;;;;;;;12.80;0.63;;;9.70;99.90;;;;;;5045309;28;20109;-89
2022/02/17 02:11:09;;;;;;;7.43;0.30;;;10.10;99.90;;;;;;5039136;28;20024;-89
2022/02/17 02:13:36;;;;;;;10.13;0.43;;;10.40;99.90;;;;;;5035578;28;20033;-89
2022/02/17 02:16:02;;;;;;;10.25;0.47;;;10.40;99.90;;;;;;5034182;28;20025;-90
2022/02/17 02:18:28;;;;;;;7.78;0.50;;;11.90;99.90;;;;;;5033945;28;20026;-89
2022/02/17 02:20:56;;;;;;;12.05;1.67;;;10.60;99.90;;;;;;5034029;28;20009;-89
2022/02/17 02:23:22;;;;;;;12.85;1.42;;;10.60;99.90;;;;;;5042575;28;20037;-90
2022/02/17 02:25:52;;;;;;;14.80;0.55;;;10.70;99.90;;;;;;5045593;28;20036;-88
2022/02/17 02:28:26;;;;;;;17.05;0.70;;;10.60;99.90;;;;;;5049580;28;20021;-89
2022/02/17 02:30:52;;;;;;;8.73;0.40;;;10.70;99.90;;;;;;5047527;28;20021;-87
2022/02/17 02:33:19;;;;;;;10.02;0.93;;;10.60;99.90;;;;;;5039433;28;20030;-88
2022/02/17 02:35:45;;;;;;;8.60;0.40;;;11.20;99.90;;;;;;5040520;28;20017;-88
2022/02/17 02:38:12;;;;;;;6.30;0.88;;;10.40;99.90;;;;;;5038937;28;20030;-88
2022/02/17 02:40:37;;;;;;;12.73;1.63;;;10.50;99.90;;;;;;5051554;28;20026;-90
2022/02/17 02:43:04;;;;;;;5.10;0.30;;;9.90;99.90;;;;;;5045678;28;20037;-89
2022/02/17 02:45:29;;;;;;;15.40;1.48;;;13.60;99.90;;;;;;5038808;28;20036;-88
2022/02/17 02:47:55;;;;;;;13.50;1.38;;;;;;;;;;5046270;28;19997;-89
2022/02/17 02:50:21;;;;;;;8.13;0.40;;;10.50;99.90;;;;;;5052113;28;20030;-88
2022/02/17 02:52:47;;;;;;;17.80;1.33;;;10.50;99.90;;;;;;5051051;28;20036;-89
2022/02/17 02:55:13;;;;;;;11.40;1.13;;;11.20;99.90;;;;;;5052475;28;20013;-88
2022/02/17 02:57:38;;;;;;;22.98;2.90;;;9.60;99.90;;;;;;5055865;28;20048;-88
2022/02/17 03:00:05;;;;;;;14.32;0.57;;;10.00;99.90;;;;;;5057423;28;20093;-90
2022/02/17 03:02:31;;;;;;;8.50;0.68;;;10.30;99.90;;;;;;5054791;28;20055;-88
2022/02/17 03:04:56;;;;;;;7.05;0.68;;;10.30;99.90;;;;;;5061389;28;20054;-91
2022/02/17 03:07:22;;;;;;;7.88;0.63;;;10.20;99.90;;;;;;5059568;28;20041;-88
2022/02/17 03:09:47;;;;;;;13.13;0.75;;;10.10;99.90;;;;;;5060574;28;20029;-89
2022/02/17 03:12:13;;;;;;;12.85;0.40;;;9.90;99.90;;;;;;5061473;28;20021;-90
2022/02/17 03:14:42;;;;;;;6.05;0.73;;;;;;;;;;5061806;28;20029;-90
2022/02/17 03:17:08;;;;;;;11.93;1.50;;;10.00;99.90;;;;;;5061874;28;20021;-89
2022/02/17 03:19:33;;;;;;;13.65;1.88;;;9.60;99.90;;;;;;5061127;28;20065;-91
2022/02/17 03:21:59;;;;;;;11.85;1.05;;;10.50;99.90;;;;;;5061423;28;20017;-91
2022/02/17 03:24:26;;;;;;;31.65;0.65;;;;;;;;;;5060902;28;20025;-90
2022/02/17 03:26:52;;;;;;;8.57;0.63;;;;;;;;;;5077564;28;20033;-91
2022/02/17 03:29:19;;;;;;;15.10;0.85;;;;;;;;;;5077245;28;20010;-90
2022/02/17 03:31:45;;;;;;;8.27;0.60;;;;;;;;;;5076797;28;20038;-89
2022/02/17 03:34:11;;;;;;;14.65;0.85;;;;;;;;;;5077864;28;20097;-91
2022/02/17 03:36:37;;;;;;;10.32;0.60;;;;;;;;;;5077857;28;20005;-90
2022/02/17 03:39:05;;;;;;;12.60;0.95;;;9.80;99.90;;;;;;5077786;28;20085;-91
2022/02/17 03:41:31;;;;;;;9.88;1.02;;;;;;;;;;5060948;28;20005;-88
2022/02/17 03:43:57;;;;;;;10.52;1.33;;;;;;;;;;5077027;28;20013;-89
2022/02/17 03:46:23;;;;;;;11.98;0.50;;;;;;;;;;5061223;28;20018;-92
2022/02/17 03:48:49;;;;;;;11.10;0.50;;;;;;;;;;5058777;28;20037;-88
2022/02/17 03:51:15;;;;;;;21.33;1.25;;;9.70;99.90;;;;;;5074607;28;20426;-88
2022/02/17 03:53:41;;;;;;;12.85;0.77;;;11.50;99.90;;;;;;5058732;28;20030;-89
2022/02/17 03:56:07;;;;;;;15.45;0.80;;;;;;;;;;5058581;28;20025;-88
2022/02/17 04:01:17;;;;;;;17.20;0.55;;;13.20;99.90;;;;;;5052677;28;20049;-89
2022/02/17 04:03:43;;;;;;;17.02;2.15;;;;;;;;;;5059523;28;20017;-92
2022/02/17 04:06:08;;;;;;;8.45;1.08;;;9.60;99.90;;;;;;5033733;22;20525;-75
2022/02/17 04:08:34;;;;;;;11.10;1.05;;;9.60;99.90;;;;;;5034808;28;20018;-75
2022/02/17 04:11:02;;;;;;;21.77;1.33;;;9.50;99.90;;;;;;5035856;28;20037;-75
2022/02/17 04:13:28;;;;;;;12.20;1.52;;;9.60;99.90;;;;;;5035524;28;20024;-75
2022/02/17 04:15:54;;;;;;;13.43;1.33;;;9.60;99.90;;;;;;5017571;28;20030;-75
2022/02/17 04:18:19;;;;;;;12.43;0.70;;;9.50;99.90;;;;;;5017764;28;20108;-75
2022/02/17 04:20:45;;;;;;;14.55;0.95;;;9.50;99.90;;;;;;5017586;28;20018;-75
2022/02/17 04:23:10;;;;;;;12.80;1.25;;;9.50;99.90;;;;;;5035383;28;20147;-75
2022/02/17 04:25:36;;;;;;;7.80;0.35;;;9.50;99.90;;;;;;5035206;28;20076;-75
2022/02/17 04:28:01;;;;;;;11.75;1.08;;;9.60;99.90;;;;;;5035604;28;20092;-75
2022/02/17 04:30:27;;;;;;;13.05;1.38;;;9.70;99.90;;;;;;5035513;28;20025;-75
2022/02/17 04:32:52;;;;;;;17.85;1.45;;;9.60;99.90;;;;;;5035179;28;20033;-75
2022/02/17 04:35:18;;;;;;;9.50;1.20;;;9.60;99.90;;;;;;5017162;28;20025;-76
2022/02/17 04:37:43;;;;;;;10.65;0.63;;;9.50;99.90;;;;;;5035555;28;20026;-75
2022/02/17 04:40:09;;;;;;;13.63;1.08;;;9.50;99.90;;;;;;5035172;28;20014;-75
2022/02/17 04:42:35;;;;;;;17.80;2.00;;;9.50;99.90;;;;;;5034846;28;20022;-75
2022/02/17 04:45:01;;;;;;;18.13;0.90;;;9.50;99.90;;;;;;5034822;28;20040;-75
2022/02/17 04:47:26;;;;;;;14.70;0.70;;;9.40;99.90;;;;;;5035102;28;20032;-75
2022/02/17 04:49:52;;;;;;;16.50;1.67;;;9.40;99.90;;;;;;5034802;28;20030;-75
2022/02/17 04:52:17;;;;;;;13.45;1.10;;;9.40;99.90;;;;;;5034610;28;20065;-75
2022/02/17 04:54:43;;;;;;;8.85;0.90;;;9.50;99.90;;;;;;5034512;28;20033;-75
2022/02/17 04:57:09;;;;;;;12.75;0.80;;;9.50;99.90;;;;;;5017001;28;20475;-75
2022/02/17 04:59:35;;;;;;;16.42;1.27;;;9.60;99.90;;;;;;5034823;28;20052;-75
2022/02/17 05:02:01;;;;;;;14.07;0.75;;;9.60;99.90;;;;;;5016745;28;20017;-75
2022/02/17 05:04:27;;;;;;;11.80;1.55;;;9.60;99.90;;;;;;5034585;28;20067;-75
2022/02/17 05:06:52;;;;;;;9.75;1.38;;;9.60;99.90;;;;;;5034354;28;20075;-75
2022/02/17 05:09:18;;;;;;;14.20;2.92;;;9.60;99.90;;;;;;5034720;28;20030;-75
2022/02/17 05:11:44;;;;;;;9.95;1.00;;;9.60;99.90;;;;;;5016637;28;20120;-74
2022/02/17 05:14:09;;;;;;;15.77;1.13;;;9.40;99.90;;;;;;5034330;28;20033;-74
2022/02/17 05:16:35;;;;;;;6.18;0.73;;;9.00;99.90;;;;;;5034229;28;20026;-74
2022/02/17 05:19:00;;;;;;;14.40;0.85;;;8.60;99.90;;;;;;5016511;28;20026;-74
2022/02/17 05:21:26;;;;;;;24.73;1.88;;;8.20;99.90;;;;;;5033589;28;20020;-74
2022/02/17 05:23:52;;;;;;;12.85;0.93;;;8.10;99.90;;;;;;5016434;28;20486;-74
2022/02/17 05:26:18;;;;;;;17.42;1.58;;;8.10;99.90;;;;;;5033941;28;20014;-75
2022/02/17 05:28:43;;;;;;;11.70;1.10;;;8.00;99.90;;;;;;5034071;28;20387;-75
2022/02/17 05:31:09;;;;;;;6.30;0.70;;;8.10;99.90;;;;;;5033997;28;20511;-74
2022/02/17 05:33:35;;;;;;;13.13;0.60;;;8.10;99.90;;;;;;5034206;28;20474;-74
2022/02/17 05:36:01;;;;;;;9.48;0.68;;;8.20;99.90;;;;;;5033852;28;20030;-74
2022/02/17 05:38:26;;;;;;;9.18;0.52;;;8.20;99.90;;;;;;5034269;28;20037;-75
2022/02/17 05:40:52;;;;;;;9.43;0.13;;;8.30;99.90;;;;;;5034299;28;20021;-75
2022/02/17 05:43:17;;;;;;;12.93;0.63;;;8.30;99.90;;;;;;5033832;28;20083;-75
2022/02/17 05:45:43;;;;;;;9.88;0.63;;;8.30;99.90;;;;;;5033926;28;20029;-75
2022/02/17 05:48:08;;;;;;;15.80;2.13;;;8.30;99.90;;;;;;5033811;28;20021;-75
2022/02/17 05:50:34;;;;;;;14.13;0.57;;;8.20;99.90;;;;;;5034255;28;20037;-75
2022/02/17 05:53:00;;;;;;;20.65;1.98;;;8.20;99.90;;;;;;5033644;28;20431;-75
2022/02/17 05:55:26;;;;;;;8.48;0.75;;;8.30;99.90;;;;;;5015766;28;20509;-75
2022/02/17 05:57:52;;;;;;;18.83;1.08;;;8.30;99.90;;;;;;5033883;28;20052;-75
2022/02/17 06:00:19;;;;;;;8.95;0.77;;;8.30;99.90;;;;;;5033511;28;20454;-74
2022/02/17 06:02:45;;;;;;;12.77;0.77;;;8.30;99.90;;;;;;5033443;28;20049;-75
2022/02/17 06:05:11;;;;;;;11.70;0.98;;;8.40;99.90;;;;;;5033210;28;20139;-75
2022/02/17 06:07:37;;;;;;;10.68;1.42;;;8.40;99.90;;;;;;5033360;28;20018;-76
2022/02/17 06:10:04;;;;;;;20.92;2.38;;;8.50;99.90;;;;;;5015623;28;20018;-75
2022/02/17 06:12:29;;;;;;;11.40;1.25;;;8.50;99.90;;;;;;5033474;28;20025;-75
2022/02/17 06:14:55;;;;;;;9.88;1.15;;;8.50;99.90;;;;;;5033153;28;20479;-75
2022/02/17 06:17:20;;;;;;;7.20;0.75;;;8.50;99.90;;;;;;5033519;28;20471;-75
2022/02/17 06:19:46;;;;;;;14.00;1.40;;;8.60;99.90;;;;;;5033307;28;20397;-75
2022/02/17 06:22:11;;;;;;;8.80;0.45;;;8.60;99.90;;;;;;5033257;28;20030;-75
2022/02/17 06:24:37;;;;;;;8.13;1.05;;;8.60;99.90;;;;;;5015468;28;20036;-75
2022/02/17 06:27:03;;;;;;;18.42;1.17;;;8.60;99.90;;;;;;5033475;28;20032;-75
2022/02/17 06:29:28;;;;;;;20.17;1.80;;;8.60;99.90;;;;;;5015348;28;20083;-75
2022/02/17 06:31:54;;;;;;;9.38;0.70;;;8.70;99.90;;;;;;5017164;28;20030;-75
2022/02/17 06:34:20;;;;;;;4.55;0.38;;;8.80;99.90;;;;;;5037347;28;20034;-75
2022/02/17 06:36:48;;;;;;;14.10;0.63;;;8.80;99.90;;;;;;5019508;28;20022;-76
2022/02/17 06:39:14;;;;;;;9.40;0.43;;;8.80;99.90;;;;;;5037092;28;20025;-76
2022/02/17 06:41:40;;;;;;;14.70;0.98;;;8.80;99.90;;;;;;5037117;28;20426;-76
2022/02/17 06:44:06;;;;;;;11.75;1.13;;;8.80;99.90;;;;;;5019595;28;20161;-76
2022/02/17 06:46:32;;;;;;;6.07;0.10;;;8.80;99.90;;;;;;5037378;28;20018;-76
2022/02/17 06:48:58;;;;;;;4.30;0.00;;;8.80;99.90;;;;;;5037151;28;20021;-76
2022/02/17 06:51:23;;;;;;;11.88;0.45;;;8.70;99.90;;;;;;5037081;28;20037;-75
2022/02/17 06:53:49;;;;;;;5.88;0.20;;;8.60;99.90;;;;;;5036804;28;20096;-76
2022/02/17 06:56:15;;;;;;;8.07;0.38;;;8.60;99.90;;;;;;5017204;28;20416;-76
2022/02/17 06:58:40;;;;;;;3.25;0.22;;;8.60;99.90;;;;;;4999754;28;20491;-76
2022/02/17 07:01:06;;;;;;;9.48;0.20;;;8.50;99.90;;;;;;5017106;28;20045;-76
2022/02/17 07:03:31;;;;;;;12.20;1.08;;;8.60;99.90;;;;;;5019062;28;20021;-76
2022/02/17 07:05:57;;;;;;;3.90;0.17;;;8.80;99.90;;;;;;5019008;28;20037;-76
2022/02/17 07:08:22;;;;;;;10.02;1.05;;;8.60;99.90;;;;;;5019057;28;20047;-75
2022/02/17 07:10:58;;;;;;;8.43;0.28;;;8.60;99.90;;;;;;5036847;28;20040;-76
2022/02/17 07:13:24;;;;;;;8.90;0.40;;;8.60;99.90;;;;;;5036434;28;20033;-76
2022/02/17 07:15:51;;;;;;;5.75;0.10;;;8.50;99.90;;;;;;5036643;28;20026;-76
2022/02/17 07:18:19;;;;;;;11.07;0.77;;;8.40;99.90;;;;;;5018936;28;20437;-76
2022/02/17 07:20:46;;;;;;;11.70;0.20;;;8.50;99.90;;;;;;5036545;28;20026;-75
2022/02/17 07:23:12;;;;;;;11.52;0.52;;;8.50;99.90;;;;;;5018389;28;20018;-76
2022/02/17 07:25:38;;;;;;;8.52;1.27;;;8.50;99.90;;;;;;5036233;28;20025;-76
2022/02/17 07:28:04;;;;;;;11.38;0.32;;;8.50;99.90;;;;;;5036901;28;20478;-76
2022/02/17 07:30:30;;;;;;;7.72;0.30;;;8.50;99.90;;;;;;5018497;28;20159;-76
2022/02/17 07:32:56;;;;;;;11.43;0.50;;;8.60;99.90;;;;;;5035825;28;20057;-78
2022/02/17 07:35:21;;;;;;;10.07;0.82;;;8.70;99.90;;;;;;5036366;28;20021;-76
2022/02/17 07:37:47;;;;;;;9.10;0.60;;;8.60;99.90;;;;;;5018665;28;20021;-75
2022/02/17 07:40:15;;;;;;;13.85;0.57;;;8.60;99.90;;;;;;5036447;28;20052;-76
2022/02/17 07:42:43;;;;;;;6.72;0.45;;;8.60;99.90;;;;;;5035679;28;20025;-76
2022/02/17 07:45:10;;;;;;;6.45;0.45;;;8.70;99.90;;;;;;5036089;28;20029;-75
2022/02/17 07:47:36;;;;;;;8.77;0.32;;;8.60;99.90;;;;;;5018402;28;20017;-76
2022/02/17 07:50:02;;;;;;;16.77;0.80;;;8.70;99.90;;;;;;5035677;28;20064;-76
2022/02/17 07:52:28;;;;;;;10.32;0.22;;;11.90;99.90;;;;;;5035896;28;20111;-76
2022/02/17 07:54:53;;;;;;;12.82;1.10;;;8.70;99.90;;;;;;5017752;28;20120;-76
2022/02/17 07:57:19;;;;;;;11.27;0.10;;;8.70;99.90;;;;;;5017666;28;20486;-77
2022/02/17 07:59:45;;;;;;;10.68;0.17;;;8.60;99.90;;;;;;5035684;28;20447;-75
2022/02/17 08:02:12;;;;;;;4.07;0.40;;;8.60;99.90;;;;;;5036667;28;20092;-76
2022/02/17 08:04:38;;;;;;;8.63;0.00;;;8.60;99.90;;;;;;5036085;28;20437;-77
2022/02/17 08:07:04;;;;;;;10.95;0.32;;;8.70;99.90;;;;;;5018114;28;20079;-75
2022/02/17 08:09:30;;;;;;;2.83;0.52;;;8.70;99.90;;;;;;5035823;28;20041;-76
2022/02/17 08:11:56;;;;;;;6.57;0.22;;;8.70;99.90;;;;;;5017273;28;20025;-76
2022/02/17 08:14:21;;;;;;;8.15;0.30;;;8.70;99.90;;;;;;5035436;28;20025;-75
2022/02/17 08:16:47;;;;;;;9.52;0.73;;;8.70;99.90;;;;;;5034670;28;20021;-76
2022/02/17 08:19:13;;;;;;;6.45;0.40;;;8.70;99.90;;;;;;5035435;28;20073;-75
2022/02/17 08:21:38;;;;;;;11.15;0.50;;;8.80;99.90;;;;;;5017661;28;20021;-76
2022/02/17 08:24:05;;;;;;;9.18;0.77;;;8.70;99.90;;;;;;5017439;28;20032;-76
2022/02/17 08:26:30;;;;;;;5.03;0.10;;;8.70;99.90;;;;;;5035523;28;20052;-75
2022/02/17 08:28:58;;;;;;;10.65;0.20;;;8.80;99.90;;;;;;5017364;28;20033;-78
2022/02/17 08:31:25;;;;;;;3.10;0.23;;;8.80;99.90;;;;;;5035032;28;20026;-76
2022/02/17 08:33:51;;;;;;;11.75;0.60;;;8.80;99.90;;;;;;5017116;28;20025;-75
2022/02/17 08:36:16;;;;;;;3.05;0.13;;;8.80;99.90;;;;;;5034506;28;20216;-76
2022/02/17 08:38:45;;;;;;;9.55;0.65;;;8.80;99.90;;;;;;5035137;28;20101;-77
2022/02/17 08:41:11;;;;;;;3.95;0.28;;;8.90;99.90;;;;;;5018094;28;20076;-75
2022/02/17 08:43:37;;;;;;;3.70;0.55;;;8.90;99.90;;;;;;5035110;28;20060;-77
2022/02/17 08:46:03;;;;;;;4.50;0.60;;;8.90;99.90;;;;;;5017227;28;20048;-77
2022/02/17 08:48:29;;;;;;;6.63;0.35;;;8.90;99.90;;;;;;5017208;28;20542;-75
2022/02/17 08:50:55;;;;;;;7.90;1.05;;;8.90;99.90;;;;;;5035175;28;20053;-75
2022/02/17 08:53:20;;;;;;;6.13;1.08;;;8.90;99.90;;;;;;5035480;28;20032;-76
2022/02/17 08:55:46;;;;;;;10.40;1.48;;;8.90;99.90;;;;;;5034665;28;20030;-76
2022/02/17 08:58:12;;;;;;;9.25;1.30;;;8.90;99.90;;;;;;5016730;28;20021;-77
2022/02/17 09:00:38;;;;;;;7.45;0.00;;;8.90;99.90;;;;;;5034738;28;20026;-77
2022/02/17 09:03:06;;;;;;;5.68;0.80;;;8.90;99.90;;;;;;5034215;28;20049;-76
2022/02/17 09:05:32;;;;;;;9.73;0.10;;;8.90;99.90;;;;;;5034408;28;20037;-76
2022/02/17 09:07:59;;;;;;;12.32;0.20;;;9.00;99.90;;;;;;5034212;28;20084;-76
2022/02/17 09:10:25;;;;;;;5.20;0.13;;;9.00;99.90;;;;;;5034500;28;20056;-77
2022/02/17 09:12:50;;;;;;;8.07;0.98;;;9.10;99.90;;;;;;5016670;28;20083;-77
2022/02/17 09:15:17;;;;;;;5.70;0.55;;;9.10;99.90;;;;;;5034348;28;20025;-76
2022/02/17 09:17:46;;;;;;;9.02;0.08;;;9.10;99.30;;;;;;5034417;28;20021;-76
2022/02/17 09:20:12;;;;;;;4.00;0.08;;;9.10;99.90;;;;;;5032052;28;20100;-75
2022/02/17 09:22:37;;;;;;;4.53;0.77;;;9.10;99.90;;;;;;5016939;28;20046;-75
2022/02/17 09:25:04;;;;;;;9.45;0.05;;;9.20;99.90;;;;;;5034582;28;20083;-77
2022/02/17 09:27:29;;;;;;;9.73;0.10;;;9.30;99.90;;;;;;5016530;28;20071;-75
2022/02/17 09:29:55;;;;;;;1.80;0.00;;;9.30;99.80;;;;;;5016119;28;20470;-75
2022/02/17 09:32:22;;;;;;;5.93;0.25;;;9.40;98.60;;;;;;5034252;28;20033;-75
2022/02/17 09:34:47;;;;;;;5.13;0.10;;;9.40;99.70;;;;;;5016015;28;20029;-75
2022/02/17 09:37:13;;;;;;;4.63;0.13;;;9.50;99.20;;;;;;5034238;28;20026;-76
2022/02/17 09:39:39;;;;;;;6.10;0.28;;;9.50;97.90;;;;;;5034058;28;20105;-77
2022/02/17 09:42:06;;;;;;;3.47;0.00;;;9.50;99.90;;;;;;5034256;28;20032;-74
2022/02/17 09:44:33;;;;;;;5.43;0.75;;;9.50;99.00;;;;;;5033938;28;20026;-76
2022/02/17 09:46:59;;;;;;;5.10;0.25;;;9.60;99.90;;;;;;5033738;28;20076;-75
2022/02/17 09:49:25;;;;;;;6.75;0.30;;;9.60;99.90;;;;;;5033742;28;20037;-75
2022/02/17 09:51:52;;;;;;;12.63;0.10;;;9.60;99.90;;;;;;5016210;28;20068;-75
2022/02/17 10:48:33;;;;;;;5.38;0.03;;;10.40;94.90;;;;;;5032193;28;20057;-72
2022/02/17 10:51:08;;;;;;;6.63;0.35;;;10.40;94.60;;;;;;5034160;28;20029;-72
2022/02/17 10:53:40;;;;;;;6.95;2.00;;;10.30;93.60;;;;;;5015714;28;20022;-72
2022/02/17 10:56:07;;;;;;;13.38;0.52;;;10.40;96.50;;;;;;5033370;28;20059;-72
2022/02/17 10:58:36;;;;;;;1.63;0.43;;;10.50;95.80;;;;;;5034019;28;20018;-72
2022/02/17 11:01:07;;;;;;;7.70;0.57;;;10.50;93.70;;;;;;5033215;28;20104;-72
2022/02/17 11:03:35;;;;;;;7.38;1.23;;;10.70;95.90;;;;;;5033249;28;20029;-72
2022/02/17 11:06:02;;;;;;;3.92;0.15;;;10.80;93.90;;;;;;5033540;28;20021;-72
2022/02/17 11:08:28;;;;;;;13.40;1.65;;;10.70;96.10;;;;;;5033297;28;20501;-72
2022/02/17 11:10:54;;;;;;;8.63;0.90;;;10.80;95.40;;;;;;5033671;28;20025;-72
2022/02/17 11:13:24;;;;;;;7.22;0.00;;;10.80;95.00;;;;;;5033581;28;20087;-72
2022/02/17 11:15:51;;;;;;;3.38;0.00;;;10.70;96.20;;;;;;5033177;28;20052;-72
2022/02/17 11:18:18;;;;;;;8.45;0.55;;;10.60;96.60;;;;;;5035446;28;20080;-72
2022/02/17 11:20:46;;;;;;;8.65;1.20;;;10.70;97.80;;;;;;5036922;28;20018;-72
2022/02/17 11:23:14;;;;;;;4.85;0.43;;;10.70;96.60;;;;;;5036829;28;20076;-72
2022/02/17 11:25:41;;;;;;;5.63;0.52;;;10.70;96.20;;;;;;5037205;28;20025;-72
2022/02/17 11:28:11;;;;;;;10.18;0.10;;;10.70;95.50;;;;;;5036837;28;20120;-72
2022/02/17 11:30:56;;;;;;;3.88;0.00;;;10.60;95.60;;;;;;5018994;28;20022;-72
2022/02/17 11:33:29;;;;;;;1.98;0.00;;;10.80;95.10;;;;;;5036918;28;20079;-72
2022/02/17 11:36:22;;;;;;;2.35;0.00;;;10.70;95.40;;;;;;5036997;28;20043;-72
2022/02/17 11:38:55;;;;;;;5.13;1.02;;;10.70;95.30;;;;;;5019049;28;20021;-72
2022/02/17 11:41:23;;;;;;;3.72;0.22;;;10.80;97.10;;;;;;5036612;28;20017;-72
2022/02/17 11:43:51;;;;;;;2.35;0.55;;;10.70;93.00;;;;;;5036470;28;20029;-72
2022/02/17 11:46:42;;;;;;;8.07;0.13;;;10.90;95.10;;;;;;5036764;28;20025;-72
2022/02/17 11:49:31;;;;;;;2.95;0.30;;;11.00;94.40;;;;;;5037102;28;20103;-72
2022/02/17 11:52:13;;;;;;;3.40;0.32;;;11.00;94.90;;;;;;5036125;28;20036;-72
2022/02/17 11:54:40;;;;;;;6.22;0.05;;;10.90;92.10;;;;;;5036640;28;20060;-72
2022/02/17 11:57:25;;;;;;;5.57;0.20;;;10.70;93.80;;;;;;5036477;28;20387;-72
2022/02/17 12:00:11;;;;;;;2.05;0.00;;;10.50;93.10;;;;;;5037107;28;20489;-72
2022/02/17 12:02:45;;;;;;;7.68;0.00;;;10.40;95.60;;;;;;5036264;28;20026;-72
2022/02/17 12:05:16;;;;;;;7.53;0.47;;;10.40;96.10;;;;;;5036832;28;20108;-72
2022/02/17 12:07:41;;;;;;;1.85;0.10;;;10.30;95.60;;;;;;5036501;28;20017;-72
2022/02/17 12:10:33;;;;;;;12.70;0.55;;;10.30;96.80;;;;;;5036431;28;20498;-72
2022/02/17 12:13:00;;;;;;;16.02;1.10;;;10.40;97.10;;;;;;5018437;28;20474;-72
2022/02/17 12:15:26;;;;;;;9.20;0.63;;;10.30;97.60;;;;;;5018700;28;20029;-72
2022/02/17 12:17:55;;;;;;;5.82;0.70;;;10.40;99.10;;;;;;5035944;28;20152;-72
2022/02/17 12:20:25;;;;;;;;;;;10.30;95.50;;;;;;5036768;28;20043;-72
2022/02/17 12:22:59;;;;;;;4.95;0.60;;;10.20;97.30;;;;;;5017940;28;19905;-72
2022/02/17 12:25:27;;;;;;;5.85;0.20;;;10.50;99.70;;;;;;5017828;28;20554;-72
2022/02/17 12:27:58;;;;;;;4.32;0.10;;;10.60;96.90;;;;;;5036006;28;20045;-73
2022/02/17 12:30:32;;;;;;;6.18;0.10;;;10.60;97.10;;;;;;5035465;28;20033;-73
2022/02/17 12:33:11;;;;;;;3.95;0.00;;;10.80;96.60;;;;;;5017726;28;20029;-73
2022/02/17 12:35:38;;;;;;;4.00;0.00;;;10.90;97.50;;;;;;5035124;28;20030;-72
2022/02/17 12:38:12;;;;;;;2.95;0.00;;;10.80;96.10;;;;;;5018468;28;20022;-72
2022/02/17 12:40:40;;;;;;;11.63;0.82;;;10.90;96.00;;;;;;5035614;28;20025;-72
2022/02/17 12:43:06;;;;;;;9.07;0.60;;;10.90;97.00;;;;;;5035240;28;20032;-72
2022/02/17 12:45:39;;;;;;;6.53;0.30;;;10.90;95.80;;;;;;5035289;28;20026;-73
2022/02/17 12:48:06;;;;;;;3.50;0.20;;;10.80;95.60;;;;;;5017586;28;20437;-73
2022/02/17 12:50:31;;;;;;;5.85;1.25;;;10.90;94.00;;;;;;5035262;28;20029;-72
2022/02/17 12:52:57;;;;;;;11.20;0.80;;;10.70;94.80;;;;;;5035083;28;20095;-72
2022/02/17 12:55:51;;;;;;;5.43;0.00;;;10.80;97.20;;;;;;5035593;28;20021;-72
2022/02/17 12:58:34;;;;;;;11.23;0.25;;;10.90;97.70;;;;;;5017428;28;20142;-73
2022/02/17 13:01:01;;;;;;;6.30;0.50;;;11.00;96.40;;;;;;5035190;28;20430;-73
2022/02/17 13:03:40;;;;;;;4.70;0.65;;;11.10;98.20;;;;;;5017071;28;20496;-73
2022/02/17 13:06:18;;;;;;;11.38;0.98;;;11.00;97.30;;;;;;5035347;28;20029;-72
2022/02/17 13:08:46;;;;;;;6.70;0.88;;;10.90;98.70;;;;;;5034629;28;20371;-72
2022/02/17 13:11:12;;;;;;;9.73;0.25;;;10.80;96.60;;;;;;5017237;28;20037;-73
2022/02/17 13:13:39;;;;;;;3.85;0.00;;;10.80;97.80;;;;;;5034652;28;20371;-72
2022/02/17 13:16:06;;;;;;;12.73;1.02;;;10.90;96.30;;;;;;5034551;28;20032;-72
2022/02/17 13:18:31;;;;;;;3.92;0.00;;;10.80;97.40;;;;;;5016964;28;20026;-72
2022/02/17 13:21:12;;;;;;;4.28;0.20;;;10.80;95.70;;;;;;5035052;28;20155;-72
2022/02/17 13:23:38;;;;;;;3.95;0.40;;;10.70;96.60;;;;;;5017041;28;20513;-72
2022/02/17 13:26:03;;;;;;;9.15;1.08;;;10.60;96.70;;;;;;5034844;28;20025;-72
2022/02/17 13:28:29;;;;;;;8.48;0.40;;;10.70;98.20;;;;;;5034837;28;20156;-72
2022/02/17 13:30:55;;;;;;;7.47;1.05;;;10.70;97.60;;;;;;5034564;28;20029;-72
2022/02/17 13:33:21;;;;;;;11.13;0.10;;;10.60;98.10;;;;;;5034246;28;20026;-72
2022/02/17 13:35:56;;;;;;;9.35;0.68;;;10.60;98.10;;;;;;5016833;28;20025;-72
2022/02/17 13:38:27;;;;;;;6.97;0.35;;;10.60;98.50;;;;;;5034642;28;20081;-72
2022/02/17 13:40:54;;;;;;;8.15;0.35;;;10.70;99.90;;;;;;5033803;28;20026;-72
2022/02/17 13:43:20;;;;;;;5.25;0.10;;;10.90;98.50;;;;;;5034246;28;20025;-72
2022/02/17 13:45:48;;;;;;;5.50;0.30;;;10.90;97.70;;;;;;5034959;28;20467;-72
2022/02/17 13:48:43;;;;;;;1.67;0.05;;;10.90;97.10;;;;;;5034474;28;20044;-72
2022/02/17 13:51:13;;;;;;;5.70;0.38;;;10.80;97.40;;;;;;5007562;28;20560;-72